Broadview Acres, New Mexico
Current Conditions -  °F | °C
As of 1:37 AM on Saturday 29 Nov 2014 (Local Time) from KGNT Reporting Station
Clear Clear  
Wind Chill:   Ceiling: Unl
Heat Index: 16°   Visibility: 10mi
Dew Point: -4°   Wind: 9mph
Humidity: 41%   Direction: 300°WNW
Pressure: 30.12"   Gusts: NA
Location:  35.2644°N, 107.733°W
Report Text: KGNT 290837Z AUTO 30008KT 10SM CLR M09/M20 A3012 RMK AO2
Loading
Personal Weather Stations






























Interactive Weather Map New forecast layout! Learn more

10-Day Weather Forecast

Advertisements
Track Severe Weather on mobile